sensor_id;sensor_type;location;lat;lon;timestamp;pressure;altitude;pressure_sealevel;temperature;humidity
17521;BME280;8878;-33.370;-70.552;2022-08-01T00:00:39;92284.38;;;11.19;86.21
17521;BME280;8878;-33.370;-70.552;2022-08-01T00:03:08;92285.44;;;11.03;86.12
17521;BME280;8878;-33.370;-70.552;2022-08-01T00:05:38;92286.75;;;10.90;86.58
17521;BME280;8878;-33.370;-70.552;2022-08-01T00:08:10;92286.22;;;10.68;86.87
17521;BME280;8878;-33.370;-70.552;2022-08-01T00:10:40;92289.38;;;10.59;88.58
17521;BME280;8878;-33.370;-70.552;2022-08-01T00:13:10;92290.97;;;10.66;89.64
17521;BME280;8878;-33.370;-70.552;2022-08-01T00:15:40;92289.66;;;10.63;89.51
17521;BME280;8878;-33.370;-70.552;2022-08-01T00:18:10;92287.53;;;10.60;89.14
17521;BME280;8878;-33.370;-70.552;2022-08-01T00:20:39;92295.97;;;10.57;90.76
17521;BME280;8878;-33.370;-70.552;2022-08-01T00:23:10;92290.41;;;10.48;90.98
17521;BME280;8878;-33.370;-70.552;2022-08-01T00:25:40;92294.59;;;10.34;91.15
17521;BME280;8878;-33.370;-70.552;2022-08-01T00:28:09;92293.81;;;10.29;90.67
17521;BME280;8878;-33.370;-70.552;2022-08-01T00:30:40;92296.56;;;10.02;90.38
17521;BME280;8878;-33.370;-70.552;2022-08-01T00:33:09;92305.78;;;9.94;91.79
17521;BME280;8878;-33.370;-70.552;2022-08-01T00:35:39;92312.06;;;9.88;91.48
17521;BME280;8878;-33.370;-70.552;2022-08-01T00:38:10;92304.69;;;9.80;92.83
17521;BME280;8878;-33.370;-70.552;2022-08-01T00:40:39;92285.75;;;9.93;93.78
17521;BME280;8878;-33.370;-70.552;2022-08-01T00:43:09;92295.56;;;10.08;92.24
17521;BME280;8878;-33.370;-70.552;2022-08-01T00:45:39;92306.34;;;10.06;91.84
17521;BME280;8878;-33.370;-70.552;2022-08-01T00:48:09;92302.13;;;10.05;90.73
17521;BME280;8878;-33.370;-70.552;2022-08-01T00:50:38;92310.03;;;10.00;90.35
17521;BME280;8878;-33.370;-70.552;2022-08-01T00:53:10;92309.00;;;10.06;89.68
17521;BME280;8878;-33.370;-70.552;2022-08-01T00:55:39;92311.63;;;10.01;89.15
17521;BME280;8878;-33.370;-70.552;2022-08-01T00:58:09;92309.19;;;9.95;89.19
17521;BME280;8878;-33.370;-70.552;2022-08-01T01:00:39;92316.22;;;9.74;89.28
17521;BME280;8878;-33.370;-70.552;2022-08-01T01:03:09;92320.28;;;9.45;92.13
17521;BME280;8878;-33.370;-70.552;2022-08-01T01:05:48;92326.88;;;9.52;94.25
17521;BME280;8878;-33.370;-70.552;2022-08-01T01:08:27;92327.28;;;9.71;93.72
17521;BME280;8878;-33.370;-70.552;2022-08-01T01:11:04;92317.81;;;9.75;93.51
17521;BME280;8878;-33.370;-70.552;2022-08-01T01:13:43;92328.63;;;9.78;93.47
17521;BME280;8878;-33.370;-70.552;2022-08-01T01:16:15;92321.19;;;9.65;92.46
17521;BME280;8878;-33.370;-70.552;2022-08-01T01:18:47;92319.78;;;9.53;92.35
17521;BME280;8878;-33.370;-70.552;2022-08-01T01:21:35;92313.22;;;9.55;93.48
17521;BME280;8878;-33.370;-70.552;2022-08-01T01:24:19;92312.44;;;9.55;92.52
17521;BME280;8878;-33.370;-70.552;2022-08-01T01:26:54;92304.22;;;9.46;91.92
17521;BME280;8878;-33.370;-70.552;2022-08-01T01:29:30;92300.03;;;9.50;91.98
17521;BME280;8878;-33.370;-70.552;2022-08-01T01:32:04;92303.00;;;9.64;90.28
17521;BME280;8878;-33.370;-70.552;2022-08-01T01:34:38;92307.22;;;9.65;88.54
17521;BME280;8878;-33.370;-70.552;2022-08-01T01:37:10;92305.41;;;9.65;87.96
17521;BME280;8878;-33.370;-70.552;2022-08-01T01:39:42;92308.50;;;9.57;86.14
17521;BME280;8878;-33.370;-70.552;2022-08-01T01:42:11;92299.78;;;9.52;85.63
17521;BME280;8878;-33.370;-70.552;2022-08-01T01:44:44;92313.72;;;9.52;85.73
17521;BME280;8878;-33.370;-70.552;2022-08-01T01:47:14;92318.75;;;9.54;85.71
17521;BME280;8878;-33.370;-70.552;2022-08-01T01:49:46;92341.72;;;9.63;85.58
17521;BME280;8878;-33.370;-70.552;2022-08-01T01:52:17;92347.78;;;9.64;84.39
17521;BME280;8878;-33.370;-70.552;2022-08-01T01:54:50;92343.47;;;9.48;84.32
17521;BME280;8878;-33.370;-70.552;2022-08-01T01:57:20;92343.59;;;9.31;85.25
17521;BME280;8878;-33.370;-70.552;2022-08-01T01:59:53;92332.84;;;9.32;85.95
17521;BME280;8878;-33.370;-70.552;2022-08-01T02:02:24;92317.28;;;9.31;86.61
17521;BME280;8878;-33.370;-70.552;2022-08-01T02:04:53;92307.88;;;9.40;86.94
17521;BME280;8878;-33.370;-70.552;2022-08-01T02:07:25;92303.97;;;9.48;86.24
17521;BME280;8878;-33.370;-70.552;2022-08-01T02:09:57;92306.09;;;9.51;86.00
17521;BME280;8878;-33.370;-70.552;2022-08-01T02:12:29;92303.13;;;9.37;86.36
17521;BME280;8878;-33.370;-70.552;2022-08-01T02:15:04;92308.41;;;9.37;86.76
17521;BME280;8878;-33.370;-70.552;2022-08-01T02:17:39;92303.41;;;9.40;86.21
17521;BME280;8878;-33.370;-70.552;2022-08-01T02:20:11;92305.59;;;9.17;85.59
17521;BME280;8878;-33.370;-70.552;2022-08-01T02:22:44;92297.75;;;9.22;85.50
17521;BME280;8878;-33.370;-70.552;2022-08-01T02:25:21;92298.09;;;9.30;84.20
17521;BME280;8878;-33.370;-70.552;2022-08-01T02:27:56;92289.41;;;9.35;84.32
17521;BME280;8878;-33.370;-70.552;2022-08-01T02:30:32;92293.41;;;9.37;84.36
17521;BME280;8878;-33.370;-70.552;2022-08-01T02:33:04;92293.88;;;9.29;83.92
17521;BME280;8878;-33.370;-70.552;2022-08-01T02:35:36;92293.47;;;9.11;83.59
17521;BME280;8878;-33.370;-70.552;2022-08-01T02:38:09;92295.50;;;9.03;83.36
17521;BME280;8878;-33.370;-70.552;2022-08-01T02:40:43;92295.59;;;9.14;83.05
17521;BME280;8878;-33.370;-70.552;2022-08-01T02:43:18;92291.69;;;9.21;82.03
17521;BME280;8878;-33.370;-70.552;2022-08-01T02:45:54;92285.50;;;9.37;80.56
17521;BME280;8878;-33.370;-70.552;2022-08-01T02:48:26;92279.00;;;9.13;81.49
17521;BME280;8878;-33.370;-70.552;2022-08-01T02:50:58;92283.44;;;9.08;83.10
17521;BME280;8878;-33.370;-70.552;2022-08-01T02:53:32;92272.69;;;9.09;82.58
17521;BME280;8878;-33.370;-70.552;2022-08-01T02:56:05;92277.72;;;9.16;82.53
17521;BME280;8878;-33.370;-70.552;2022-08-01T02:58:35;92274.88;;;9.22;83.79
17521;BME280;8878;-33.370;-70.552;2022-08-01T03:01:08;92267.22;;;9.21;83.94
17521;BME280;8878;-33.370;-70.552;2022-08-01T03:03:38;92260.59;;;9.13;83.70
17521;BME280;8878;-33.370;-70.552;2022-08-01T03:06:09;92259.03;;;9.17;83.07
17521;BME280;8878;-33.370;-70.552;2022-08-01T03:08:39;92258.53;;;9.25;84.08
17521;BME280;8878;-33.370;-70.552;2022-08-01T03:11:12;92252.75;;;9.23;84.97
17521;BME280;8878;-33.370;-70.552;2022-08-01T03:13:43;92256.13;;;9.19;85.16
17521;BME280;8878;-33.370;-70.552;2022-08-01T03:16:17;92245.50;;;9.03;85.35
17521;BME280;8878;-33.370;-70.552;2022-08-01T03:18:49;92256.38;;;9.12;85.63
17521;BME280;8878;-33.370;-70.552;2022-08-01T03:21:20;92247.69;;;9.17;85.23
17521;BME280;8878;-33.370;-70.552;2022-08-01T03:23:51;92254.28;;;9.14;84.54
17521;BME280;8878;-33.370;-70.552;2022-08-01T03:26:26;92247.19;;;9.20;84.31
17521;BME280;8878;-33.370;-70.552;2022-08-01T03:28:58;92238.53;;;9.24;84.49
17521;BME280;8878;-33.370;-70.552;2022-08-01T03:31:30;92235.38;;;9.22;85.12
17521;BME280;8878;-33.370;-70.552;2022-08-01T03:33:59;92234.59;;;9.22;84.86
17521;BME280;8878;-33.370;-70.552;2022-08-01T03:36:30;92240.31;;;9.14;85.04
17521;BME280;8878;-33.370;-70.552;2022-08-01T03:39:03;92239.53;;;9.13;86.35
17521;BME280;8878;-33.370;-70.552;2022-08-01T03:41:37;92236.34;;;9.11;85.50
17521;BME280;8878;-33.370;-70.552;2022-08-01T03:44:10;92243.50;;;9.16;85.27
17521;BME280;8878;-33.370;-70.552;2022-08-01T03:46:46;92240.88;;;9.16;84.59
17521;BME280;8878;-33.370;-70.552;2022-08-01T03:49:20;92239.53;;;9.13;84.69
17521;BME280;8878;-33.370;-70.552;2022-08-01T03:51:51;92240.47;;;8.97;84.29
17521;BME280;8878;-33.370;-70.552;2022-08-01T03:54:24;92238.63;;;8.97;84.36
17521;BME280;8878;-33.370;-70.552;2022-08-01T03:56:54;92231.28;;;8.99;84.84
17521;BME280;8878;-33.370;-70.552;2022-08-01T03:59:24;92228.41;;;9.01;83.63
17521;BME280;8878;-33.370;-70.552;2022-08-01T04:01:56;92237.91;;;9.07;83.35
17521;BME280;8878;-33.370;-70.552;2022-08-01T04:04:27;92252.63;;;9.03;84.18
17521;BME280;8878;-33.370;-70.552;2022-08-01T04:06:57;92239.97;;;8.95;85.47
17521;BME280;8878;-33.370;-70.552;2022-08-01T04:09:31;92248.22;;;8.77;84.86
17521;BME280;8878;-33.370;-70.552;2022-08-01T04:12:00;92234.28;;;8.76;85.81
17521;BME280;8878;-33.370;-70.552;2022-08-01T04:14:30;92236.63;;;8.73;86.03
17521;BME280;8878;-33.370;-70.552;2022-08-01T04:17:02;92228.47;;;8.74;86.30
17521;BME280;8878;-33.370;-70.552;2022-08-01T04:19:31;92230.59;;;8.77;84.99
17521;BME280;8878;-33.370;-70.552;2022-08-01T04:22:01;92228.78;;;8.78;85.03
17521;BME280;8878;-33.370;-70.552;2022-08-01T04:24:32;92231.88;;;8.70;84.75
17521;BME280;8878;-33.370;-70.552;2022-08-01T04:27:08;92232.38;;;8.67;85.05
17521;BME280;8878;-33.370;-70.552;2022-08-01T04:29:38;92236.53;;;8.62;85.84
17521;BME280;8878;-33.370;-70.552;2022-08-01T04:32:15;92231.69;;;8.44;85.04
17521;BME280;8878;-33.370;-70.552;2022-08-01T04:34:44;92227.81;;;8.52;85.04
17521;BME280;8878;-33.370;-70.552;2022-08-01T04:37:16;92230.22;;;8.58;84.79
17521;BME280;8878;-33.370;-70.552;2022-08-01T04:39:46;92230.22;;;8.58;84.97
17521;BME280;8878;-33.370;-70.552;2022-08-01T04:42:18;92229.13;;;8.54;84.73
17521;BME280;8878;-33.370;-70.552;2022-08-01T04:44:47;92220.13;;;8.45;84.33
17521;BME280;8878;-33.370;-70.552;2022-08-01T04:47:19;92226.25;;;8.29;83.83
17521;BME280;8878;-33.370;-70.552;2022-08-01T04:49:50;92223.94;;;8.33;84.95
17521;BME280;8878;-33.370;-70.552;2022-08-01T04:52:20;92223.00;;;8.44;85.62
17521;BME280;8878;-33.370;-70.552;2022-08-01T04:54:50;92230.78;;;8.34;83.70
17521;BME280;8878;-33.370;-70.552;2022-08-01T04:57:20;92226.41;;;8.44;85.50
17521;BME280;8878;-33.370;-70.552;2022-08-01T04:59:49;92218.16;;;8.68;85.67
17521;BME280;8878;-33.370;-70.552;2022-08-01T05:02:25;92228.22;;;8.76;85.25
17521;BME280;8878;-33.370;-70.552;2022-08-01T05:04:56;92221.06;;;8.66;86.59
17521;BME280;8878;-33.370;-70.552;2022-08-01T05:07:25;92221.56;;;8.63;86.44
17521;BME280;8878;-33.370;-70.552;2022-08-01T05:09:54;92231.28;;;8.62;86.59
17521;BME280;8878;-33.370;-70.552;2022-08-01T05:12:24;92224.22;;;8.68;86.04
17521;BME280;8878;-33.370;-70.552;2022-08-01T05:14:53;92229.47;;;8.68;85.43
17521;BME280;8878;-33.370;-70.552;2022-08-01T05:17:25;92226.91;;;8.73;85.94
17521;BME280;8878;-33.370;-70.552;2022-08-01T05:19:55;92234.03;;;8.78;86.39
17521;BME280;8878;-33.370;-70.552;2022-08-01T05:22:24;92230.34;;;8.74;87.19
17521;BME280;8878;-33.370;-70.552;2022-08-01T05:24:54;92221.88;;;8.67;87.60
17521;BME280;8878;-33.370;-70.552;2022-08-01T05:27:23;92216.72;;;8.50;87.45
17521;BME280;8878;-33.370;-70.552;2022-08-01T05:29:53;92214.28;;;8.38;87.62
17521;BME280;8878;-33.370;-70.552;2022-08-01T05:32:24;92225.28;;;8.35;86.86
17521;BME280;8878;-33.370;-70.552;2022-08-01T05:34:54;92225.56;;;8.39;86.22
17521;BME280;8878;-33.370;-70.552;2022-08-01T05:37:23;92220.63;;;8.42;85.45
17521;BME280;8878;-33.370;-70.552;2022-08-01T05:39:52;92227.81;;;8.52;85.63
17521;BME280;8878;-33.370;-70.552;2022-08-01T05:42:22;92223.38;;;8.57;85.28
17521;BME280;8878;-33.370;-70.552;2022-08-01T05:44:51;92227.63;;;8.63;85.36
17521;BME280;8878;-33.370;-70.552;2022-08-01T05:47:21;92219.41;;;8.60;85.43
17521;BME280;8878;-33.370;-70.552;2022-08-01T05:49:52;92214.06;;;8.45;84.87
17521;BME280;8878;-33.370;-70.552;2022-08-01T05:52:21;92216.22;;;8.26;85.21
17521;BME280;8878;-33.370;-70.552;2022-08-01T05:54:51;92218.25;;;8.19;85.09
17521;BME280;8878;-33.370;-70.552;2022-08-01T05:57:20;92202.84;;;8.27;83.80
17521;BME280;8878;-33.370;-70.552;2022-08-01T05:59:49;92199.66;;;8.25;82.06
17521;BME280;8878;-33.370;-70.552;2022-08-01T06:02:19;92194.41;;;8.25;81.32
17521;BME280;8878;-33.370;-70.552;2022-08-01T06:04:48;92193.13;;;8.28;80.05
17521;BME280;8878;-33.370;-70.552;2022-08-01T06:07:20;92188.13;;;8.26;79.22
17521;BME280;8878;-33.370;-70.552;2022-08-01T06:09:49;92182.63;;;8.28;79.09
17521;BME280;8878;-33.370;-70.552;2022-08-01T06:12:19;92177.84;;;8.25;79.45
17521;BME280;8878;-33.370;-70.552;2022-08-01T06:14:48;92172.34;;;8.26;79.18
17521;BME280;8878;-33.370;-70.552;2022-08-01T06:17:17;92171.63;;;8.31;78.06
17521;BME280;8878;-33.370;-70.552;2022-08-01T06:19:47;92182.97;;;8.37;78.25
17521;BME280;8878;-33.370;-70.552;2022-08-01T06:22:18;92183.72;;;8.32;78.78
17521;BME280;8878;-33.370;-70.552;2022-08-01T06:24:47;92182.75;;;8.38;79.01
17521;BME280;8878;-33.370;-70.552;2022-08-01T06:27:17;92169.63;;;8.43;79.07
17521;BME280;8878;-33.370;-70.552;2022-08-01T06:29:47;92172.97;;;8.39;78.72
17521;BME280;8878;-33.370;-70.552;2022-08-01T06:32:17;92164.75;;;8.30;78.63
17521;BME280;8878;-33.370;-70.552;2022-08-01T06:34:47;92161.56;;;8.23;79.72
17521;BME280;8878;-33.370;-70.552;2022-08-01T06:37:18;92154.97;;;8.25;79.88
17521;BME280;8878;-33.370;-70.552;2022-08-01T06:39:48;92157.13;;;8.29;79.96
17521;BME280;8878;-33.370;-70.552;2022-08-01T06:42:18;92168.25;;;8.36;80.70
17521;BME280;8878;-33.370;-70.552;2022-08-01T06:44:48;92160.13;;;8.37;80.81
17521;BME280;8878;-33.370;-70.552;2022-08-01T06:47:17;92154.19;;;8.52;84.84
17521;BME280;8878;-33.370;-70.552;2022-08-01T06:49:47;92150.28;;;8.59;82.24
17521;BME280;8878;-33.370;-70.552;2022-08-01T06:52:18;92147.91;;;8.58;81.93
17521;BME280;8878;-33.370;-70.552;2022-08-01T06:54:48;92138.91;;;8.54;82.37
17521;BME280;8878;-33.370;-70.552;2022-08-01T06:57:17;92135.47;;;8.48;82.89
17521;BME280;8878;-33.370;-70.552;2022-08-01T06:59:47;92135.19;;;8.45;84.02
17521;BME280;8878;-33.370;-70.552;2022-08-01T07:02:16;92141.75;;;8.42;84.76
17521;BME280;8878;-33.370;-70.552;2022-08-01T07:04:46;92146.38;;;8.30;85.26
17521;BME280;8878;-33.370;-70.552;2022-08-01T07:07:15;92145.13;;;8.38;85.91
17521;BME280;8878;-33.370;-70.552;2022-08-01T07:09:47;92152.81;;;8.44;85.71
17521;BME280;8878;-33.370;-70.552;2022-08-01T07:12:16;92141.50;;;8.44;85.38
17521;BME280;8878;-33.370;-70.552;2022-08-01T07:14:46;92138.69;;;8.60;86.36
17521;BME280;8878;-33.370;-70.552;2022-08-01T07:17:15;92137.19;;;8.70;85.16
17521;BME280;8878;-33.370;-70.552;2022-08-01T07:19:44;92147.69;;;8.70;86.24
17521;BME280;8878;-33.370;-70.552;2022-08-01T07:22:13;92151.81;;;8.55;86.84
17521;BME280;8878;-33.370;-70.552;2022-08-01T07:24:45;92154.41;;;8.45;86.92
17521;BME280;8878;-33.370;-70.552;2022-08-01T07:27:14;92162.00;;;8.15;88.77
17521;BME280;8878;-33.370;-70.552;2022-08-01T07:29:43;92162.56;;;8.17;90.38
17521;BME280;8878;-33.370;-70.552;2022-08-01T07:32:13;92163.47;;;8.33;90.93
17521;BME280;8878;-33.370;-70.552;2022-08-01T07:34:42;92156.31;;;8.28;89.56
17521;BME280;8878;-33.370;-70.552;2022-08-01T07:37:12;92159.44;;;8.25;89.65
17521;BME280;8878;-33.370;-70.552;2022-08-01T07:39:41;92161.59;;;8.28;89.57
17521;BME280;8878;-33.370;-70.552;2022-08-01T07:42:12;92157.81;;;8.19;90.22
17521;BME280;8878;-33.370;-70.552;2022-08-01T07:44:42;92165.63;;;8.09;95.06
17521;BME280;8878;-33.370;-70.552;2022-08-01T07:47:11;92165.47;;;8.20;97.83
17521;BME280;8878;-33.370;-70.552;2022-08-01T07:49:41;92167.88;;;8.27;97.92
17521;BME280;8878;-33.370;-70.552;2022-08-01T07:52:11;92161.50;;;8.18;96.72
17521;BME280;8878;-33.370;-70.552;2022-08-01T07:54:40;92165.63;;;8.09;96.29
17521;BME280;8878;-33.370;-70.552;2022-08-01T07:57:11;92159.28;;;8.05;96.35
17521;BME280;8878;-33.370;-70.552;2022-08-01T07:59:41;92163.59;;;7.89;99.34
17521;BME280;8878;-33.370;-70.552;2022-08-01T08:02:10;92163.47;;;8.01;100.00
17521;BME280;8878;-33.370;-70.552;2022-08-01T08:04:40;92165.16;;;7.85;100.00
17521;BME280;8878;-33.370;-70.552;2022-08-01T08:07:10;92150.47;;;7.89;100.00
17521;BME280;8878;-33.370;-70.552;2022-08-01T08:09:39;92150.09;;;8.02;100.00
17521;BME280;8878;-33.370;-70.552;2022-08-01T08:12:09;92143.69;;;7.93;100.00
17521;BME280;8878;-33.370;-70.552;2022-08-01T08:14:40;92141.31;;;7.92;96.81
17521;BME280;8878;-33.370;-70.552;2022-08-01T08:17:10;92131.03;;;7.90;91.05
17521;BME280;8878;-33.370;-70.552;2022-08-01T08:19:39;92137.63;;;7.93;88.50
17521;BME280;8878;-33.370;-70.552;2022-08-01T08:22:09;92136.25;;;7.85;87.63
17521;BME280;8878;-33.370;-70.552;2022-08-01T08:24:39;92125.75;;;7.85;87.59
17521;BME280;8878;-33.370;-70.552;2022-08-01T08:27:08;92124.75;;;7.91;86.18
17521;BME280;8878;-33.370;-70.552;2022-08-01T08:29:40;92121.44;;;8.01;85.04
17521;BME280;8878;-33.370;-70.552;2022-08-01T08:32:09;92119.75;;;7.90;85.01
17521;BME280;8878;-33.370;-70.552;2022-08-01T08:34:38;92114.56;;;7.95;85.31
17521;BME280;8878;-33.370;-70.552;2022-08-01T08:37:08;92117.25;;;8.05;84.51
17521;BME280;8878;-33.370;-70.552;2022-08-01T08:39:37;92128.09;;;8.13;84.42
17521;BME280;8878;-33.370;-70.552;2022-08-01T08:42:09;92121.63;;;8.26;84.46
17521;BME280;8878;-33.370;-70.552;2022-08-01T08:44:41;92127.47;;;8.33;82.26
17521;BME280;8878;-33.370;-70.552;2022-08-01T08:47:12;92121.34;;;8.22;81.31
17521;BME280;8878;-33.370;-70.552;2022-08-01T08:49:43;92121.63;;;8.26;78.58
17521;BME280;8878;-33.370;-70.552;2022-08-01T08:52:13;92115.94;;;8.39;77.28
17521;BME280;8878;-33.370;-70.552;2022-08-01T08:54:46;92114.88;;;8.35;77.31
17521;BME280;8878;-33.370;-70.552;2022-08-01T08:57:17;92116.22;;;8.38;77.29
17521;BME280;8878;-33.370;-70.552;2022-08-01T08:59:50;92102.28;;;8.37;77.27
17521;BME280;8878;-33.370;-70.552;2022-08-01T09:02:22;92099.34;;;8.34;76.96
17521;BME280;8878;-33.370;-70.552;2022-08-01T09:04:52;92100.59;;;8.26;77.16
17521;BME280;8878;-33.370;-70.552;2022-08-01T09:07:21;92105.47;;;8.12;77.28
17521;BME280;8878;-33.370;-70.552;2022-08-01T09:09:52;92099.38;;;8.02;78.00
17521;BME280;8878;-33.370;-70.552;2022-08-01T09:12:22;92095.22;;;8.11;78.34
17521;BME280;8878;-33.370;-70.552;2022-08-01T09:14:53;92095.31;;;8.21;77.88
17521;BME280;8878;-33.370;-70.552;2022-08-01T09:17:22;92090.28;;;8.19;77.92
17521;BME280;8878;-33.370;-70.552;2022-08-01T09:19:53;92089.00;;;8.22;76.66
17521;BME280;8878;-33.370;-70.552;2022-08-01T09:22:24;92100.97;;;8.03;76.65
17521;BME280;8878;-33.370;-70.552;2022-08-01T09:25:00;92100.97;;;8.03;76.80
17521;BME280;8878;-33.370;-70.552;2022-08-01T09:27:31;92101.47;;;8.05;76.98
17521;BME280;8878;-33.370;-70.552;2022-08-01T09:30:13;92100.16;;;8.02;79.88
17521;BME280;8878;-33.370;-70.552;2022-08-01T09:32:56;92110.16;;;8.05;80.66
17521;BME280;8878;-33.370;-70.552;2022-08-01T09:35:28;92106.72;;;8.05;81.57
17521;BME280;8878;-33.370;-70.552;2022-08-01T09:38:14;92112.50;;;8.02;82.16
17521;BME280;8878;-33.370;-70.552;2022-08-01T09:40:49;92105.66;;;8.01;82.01
17521;BME280;8878;-33.370;-70.552;2022-08-01T09:43:19;92109.59;;;8.03;81.31
17521;BME280;8878;-33.370;-70.552;2022-08-01T09:45:51;92115.66;;;8.04;84.89
17521;BME280;8878;-33.370;-70.552;2022-08-01T09:48:21;92116.50;;;8.09;92.75
17521;BME280;8878;-33.370;-70.552;2022-08-01T09:50:52;92133.38;;;8.18;97.55
17521;BME280;8878;-33.370;-70.552;2022-08-01T09:53:21;92127.31;;;8.18;92.83
17521;BME280;8878;-33.370;-70.552;2022-08-01T09:55:51;92125.72;;;8.12;91.21
17521;BME280;8878;-33.370;-70.552;2022-08-01T09:58:21;92130.97;;;8.12;90.79
17521;BME280;8878;-33.370;-70.552;2022-08-01T10:01:00;92129.13;;;8.12;91.52
17521;BME280;8878;-33.370;-70.552;2022-08-01T10:03:30;92126.59;;;8.22;92.76
17521;BME280;8878;-33.370;-70.552;2022-08-01T10:06:00;92122.41;;;8.26;97.92
17521;BME280;8878;-33.370;-70.552;2022-08-01T10:08:48;92128.47;;;8.27;100.00
17521;BME280;8878;-33.370;-70.552;2022-08-01T10:11:18;92125.59;;;8.29;100.00
17521;BME280;8878;-33.370;-70.552;2022-08-01T10:13:48;92132.59;;;8.18;96.94
17521;BME280;8878;-33.370;-70.552;2022-08-01T10:16:20;92140.44;;;8.13;94.72
17521;BME280;8878;-33.370;-70.552;2022-08-01T10:18:49;92139.88;;;8.11;94.94
17521;BME280;8878;-33.370;-70.552;2022-08-01T10:21:19;92140.81;;;7.95;98.07
17521;BME280;8878;-33.370;-70.552;2022-08-01T10:23:49;92145.53;;;7.93;100.00
17521;BME280;8878;-33.370;-70.552;2022-08-01T10:26:19;92143.50;;;8.05;100.00
17521;BME280;8878;-33.370;-70.552;2022-08-01T10:28:49;92142.25;;;8.12;100.00
17521;BME280;8878;-33.370;-70.552;2022-08-01T10:31:21;92152.50;;;8.09;100.00
17521;BME280;8878;-33.370;-70.552;2022-08-01T10:33:51;92148.78;;;8.05;100.00
17521;BME280;8878;-33.370;-70.552;2022-08-01T10:36:21;92147.69;;;8.01;100.00
17521;BME280;8878;-33.370;-70.552;2022-08-01T10:38:51;92147.69;;;8.01;100.00
17521;BME280;8878;-33.370;-70.552;2022-08-01T10:41:21;92158.16;;;7.96;100.00
17521;BME280;8878;-33.370;-70.552;2022-08-01T10:43:52;92157.63;;;7.94;100.00
17521;BME280;8878;-33.370;-70.552;2022-08-01T10:46:23;92154.47;;;7.97;99.49
17521;BME280;8878;-33.370;-70.552;2022-08-01T10:48:56;92160.31;;;8.04;98.35
17521;BME280;8878;-33.370;-70.552;2022-08-01T10:51:28;92162.69;;;8.05;97.69
17521;BME280;8878;-33.370;-70.552;2022-08-01T10:53:57;92160.63;;;8.07;96.88
17521;BME280;8878;-33.370;-70.552;2022-08-01T10:56:39;92169.53;;;8.06;95.90
17521;BME280;8878;-33.370;-70.552;2022-08-01T10:59:15;92173.97;;;8.01;95.96
17521;BME280;8878;-33.370;-70.552;2022-08-01T11:01:59;92189.19;;;7.99;96.13
17521;BME280;8878;-33.370;-70.552;2022-08-01T11:04:42;92191.00;;;7.98;95.60
17521;BME280;8878;-33.370;-70.552;2022-08-01T11:07:16;92189.09;;;7.89;94.03
17521;BME280;8878;-33.370;-70.552;2022-08-01T11:09:47;92193.28;;;7.90;93.60
17521;BME280;8878;-33.370;-70.552;2022-08-01T11:12:19;92194.34;;;7.89;92.67
17521;BME280;8878;-33.370;-70.552;2022-08-01T11:15:24;92195.72;;;7.96;93.57
17521;BME280;8878;-33.370;-70.552;2022-08-01T11:18:00;92183.66;;;7.95;94.45
17521;BME280;8878;-33.370;-70.552;2022-08-01T11:20:31;92187.25;;;7.89;94.13
17521;BME280;8878;-33.370;-70.552;2022-08-01T11:23:25;92180.47;;;7.93;94.47
17521;BME280;8878;-33.370;-70.552;2022-08-01T11:26:16;92188.00;;;7.84;93.50
17521;BME280;8878;-33.370;-70.552;2022-08-01T11:31:37;92178.09;;;7.92;92.78
17521;BME280;8878;-33.370;-70.552;2022-08-01T11:34:08;92173.88;;;7.91;92.14
17521;BME280;8878;-33.370;-70.552;2022-08-01T11:36:38;92172.81;;;7.92;91.53
17521;BME280;8878;-33.370;-70.552;2022-08-01T11:39:17;92186.00;;;7.97;90.94
17521;BME280;8878;-33.370;-70.552;2022-08-01T11:41:47;92173.19;;;8.00;91.17
17521;BME280;8878;-33.370;-70.552;2022-08-01T11:44:19;92172.88;;;7.97;90.66
17521;BME280;8878;-33.370;-70.552;2022-08-01T11:46:57;92167.13;;;8.00;91.92
17521;BME280;8878;-33.370;-70.552;2022-08-01T11:49:32;92176.59;;;8.01;89.17
17521;BME280;8878;-33.370;-70.552;2022-08-01T11:52:05;92178.38;;;7.95;88.67
17521;BME280;8878;-33.370;-70.552;2022-08-01T11:54:36;92177.50;;;7.84;88.08
17521;BME280;8878;-33.370;-70.552;2022-08-01T11:57:06;92191.06;;;7.76;88.22
17521;BME280;8878;-33.370;-70.552;2022-08-01T11:59:38;92189.13;;;7.94;90.29
17521;BME280;8878;-33.370;-70.552;2022-08-01T12:02:17;92190.22;;;7.98;96.96
17521;BME280;8878;-33.370;-70.552;2022-08-01T12:04:51;92190.22;;;7.98;100.00
17521;BME280;8878;-33.370;-70.552;2022-08-01T12:07:21;92190.47;;;7.96;100.00
17521;BME280;8878;-33.370;-70.552;2022-08-01T12:09:58;92193.34;;;7.95;100.00
17521;BME280;8878;-33.370;-70.552;2022-08-01T12:12:29;92195.31;;;7.82;100.00
17521;BME280;8878;-33.370;-70.552;2022-08-01T12:15:00;92201.97;;;7.90;100.00
17521;BME280;8878;-33.370;-70.552;2022-08-01T12:17:36;92200.78;;;8.03;100.00
17521;BME280;8878;-33.370;-70.552;2022-08-01T12:20:12;92202.44;;;8.09;100.00
17521;BME280;8878;-33.370;-70.552;2022-08-01T12:22:41;92194.13;;;8.22;100.00
17521;BME280;8878;-33.370;-70.552;2022-08-01T12:25:13;92198.94;;;8.30;100.00
17521;BME280;8878;-33.370;-70.552;2022-08-01T12:27:45;92202.50;;;8.19;100.00
17521;BME280;8878;-33.370;-70.552;2022-08-01T12:30:16;92211.91;;;8.10;100.00
17521;BME280;8878;-33.370;-70.552;2022-08-01T12:32:47;92204.25;;;8.08;100.00
17521;BME280;8878;-33.370;-70.552;2022-08-01T12:35:21;92198.25;;;8.13;100.00
17521;BME280;8878;-33.370;-70.552;2022-08-01T12:37:52;92194.53;;;8.36;100.00
17521;BME280;8878;-33.370;-70.552;2022-08-01T12:40:22;92194.09;;;8.49;100.00
17521;BME280;8878;-33.370;-70.552;2022-08-01T12:42:54;92189.97;;;8.58;100.00
17521;BME280;8878;-33.370;-70.552;2022-08-01T12:45:25;92188.72;;;8.66;100.00
17521;BME280;8878;-33.370;-70.552;2022-08-01T12:47:56;92184.97;;;8.56;100.00
17521;BME280;8878;-33.370;-70.552;2022-08-01T12:50:29;92190.78;;;8.63;100.00
17521;BME280;8878;-33.370;-70.552;2022-08-01T12:52:59;92181.44;;;8.78;100.00
17521;BME280;8878;-33.370;-70.552;2022-08-01T12:55:30;92191.25;;;8.92;100.00
17521;BME280;8878;-33.370;-70.552;2022-08-01T12:58:05;92196.03;;;9.00;99.70
17521;BME280;8878;-33.370;-70.552;2022-08-01T13:00:35;92188.19;;;9.11;99.39
17521;BME280;8878;-33.370;-70.552;2022-08-01T13:03:06;92178.75;;;9.15;95.92
17521;BME280;8878;-33.370;-70.552;2022-08-01T13:05:46;92187.38;;;9.10;94.28
17521;BME280;8878;-33.370;-70.552;2022-08-01T13:08:16;92189.72;;;9.01;94.18
17521;BME280;8878;-33.370;-70.552;2022-08-01T13:10:46;92173.22;;;9.16;93.58
17521;BME280;8878;-33.370;-70.552;2022-08-01T13:13:18;92183.00;;;9.26;93.56